Terminal Aerodrome Forecast
Issued by NWS

Home | Current Version | Previous Version | Text Only | Print | Product List | Glossary On
Versions: 1 2 3 4 5 6 7 8 9 10 11
058
FTUS45 KABQ 081732
TAFSAF
TAF
KSAF 081732Z 0818/0918 36010KT P6SM FEW250
     FM082000 33006KT P6SM FEW250
     FM090200 01006KT P6SM SKC
     FM091100 36012KT P6SM SKC=

USA.gov is the U.S. government's official web portal to all federal, state and local government web resources and services.